ROMMA est une association bénévole à but non lucratif. Votre soutien est indispensable : ADHERER à ROMMA ou FAIRE un DON

Nice - (06, Alpes-Maritimes)

Côte-d'Azur (190 m)   Longitude: 07° 14' E   Latitude: 43° 43' N Station partenaire n°136
 

Détail journalier du     <<     >>

Température Precipitation Humidité Pression Vent Dir Rafale Dir. rafale Ensol.
Heure (°C) (mm) (%) (hPa) (km/h) (km/h) (min)
01:00 13.708910231---8N0
02:00 14.108110234N11NNO0
03:00 13.408010235NNE11NNE0
04:00 14.607410234N15N0
05:00 14.307410224N13N0
06:00 14.607210226NNO18NNO0
07:00 13.807310235NNO18NNO0
08:00 13.307610233NNE10NNE0
09:00 15.607010235N13N20
10:00 17.806510234NNE11NNE60
11:00 20.306910244ESE13ESE60
12:00 20.306810246SE18SSE60
13:00 20.306810247SE18SE40
14:00 20.306710236SE15SE30
15:00 19.806810237SE15SSE30
16:00 19.607010238SSE21SSE40
17:00 18.507610238SSE19SE50
18:00 17.807710226SSE15SSE0
19:00 16.908010232S6SSE10
20:00 16.3083102300---0
21:00 15.8086102300---0
22:00 15.4087102302---0
23:00 15.308610242NNE6NNE0
minuit 15.208410243NNE60

Graphique du 12-10-2019

 

Serveur OMMA